createdAt,value
2022-10-07T00:01:50.497Z,8.73
2022-10-07T00:05:04.043Z,6.43
2022-10-07T00:11:25.020Z,7.13
2022-10-07T00:13:54.248Z,6.20
2022-10-07T00:16:24.642Z,6.07
2022-10-07T00:22:40.144Z,3.42
2022-10-07T00:25:12.434Z,11.13
2022-10-07T00:31:30.848Z,5.82
2022-10-07T00:33:58.660Z,5.35
2022-10-07T00:45:06.021Z,6.57
2022-10-07T00:50:30.356Z,3.70
2022-10-07T00:53:01.882Z,3.63
2022-10-07T00:55:30.827Z,5.45
2022-10-07T00:58:02.857Z,3.83
2022-10-07T01:00:30.247Z,4.47
2022-10-07T01:02:56.795Z,4.00
2022-10-07T01:05:23.280Z,3.80
2022-10-07T01:07:59.213Z,4.03
2022-10-07T01:10:33.748Z,3.88
2022-10-07T01:13:04.927Z,3.35
2022-10-07T01:15:35.622Z,3.95
2022-10-07T01:33:19.867Z,6.45
2022-10-07T01:35:51.003Z,17.60
2022-10-07T01:38:25.174Z,14.75
2022-10-07T01:44:30.336Z,8.02
2022-10-07T01:46:58.694Z,6.93
2022-10-07T01:49:25.445Z,14.55
2022-10-07T01:52:27.014Z,9.10
2022-10-07T01:55:28.448Z,5.63
2022-10-07T01:57:57.558Z,10.13
2022-10-07T02:00:24.221Z,7.78
2022-10-07T02:03:10.613Z,7.40
2022-10-07T02:05:48.007Z,8.95
2022-10-07T02:11:30.659Z,11.15
2022-10-07T02:14:16.795Z,18.08
2022-10-07T02:16:49.867Z,8.65
2022-10-07T02:19:25.837Z,7.68
2022-10-07T02:21:57.046Z,6.43
2022-10-07T02:24:44.636Z,7.57
2022-10-07T02:46:22.626Z,10.38
2022-10-07T02:49:00.572Z,13.27
2022-10-07T02:51:51.475Z,13.40
2022-10-07T02:54:22.891Z,14.60
2022-10-07T02:56:50.967Z,16.38
2022-10-07T02:59:19.514Z,15.48
2022-10-07T03:01:50.375Z,13.85
2022-10-07T03:04:18.640Z,16.13
2022-10-07T03:06:45.174Z,13.02
2022-10-07T03:09:12.023Z,17.85
2022-10-07T03:11:39.604Z,20.83
2022-10-07T03:14:06.401Z,23.95
2022-10-07T03:16:33.305Z,16.90
2022-10-07T03:18:59.952Z,18.35
2022-10-07T03:21:26.629Z,19.85
2022-10-07T03:23:55.335Z,27.73
2022-10-07T03:26:21.999Z,21.50
2022-10-07T03:28:48.957Z,17.60
2022-10-07T03:31:15.808Z,19.60
2022-10-07T03:33:42.521Z,28.98
2022-10-07T03:36:09.519Z,40.95
2022-10-07T03:38:36.179Z,14.10
2022-10-07T03:41:04.519Z,30.50
2022-10-07T03:43:32.029Z,31.00
2022-10-07T03:45:58.721Z,25.88
2022-10-07T03:48:25.194Z,31.55
2022-10-07T03:50:53.662Z,24.05
2022-10-07T03:53:20.578Z,24.15
2022-10-07T03:55:47.140Z,26.75
2022-10-07T03:58:13.618Z,22.88
2022-10-07T04:00:41.153Z,21.92
2022-10-07T04:03:08.328Z,17.95
2022-10-07T04:05:36.578Z,17.88
2022-10-07T04:08:04.878Z,13.40
2022-10-07T04:10:32.180Z,26.23
2022-10-07T04:12:58.763Z,21.83
2022-10-07T04:15:25.448Z,16.77
2022-10-07T04:17:58.426Z,33.28
2022-10-07T04:20:26.301Z,18.75
2022-10-07T04:22:52.794Z,21.88
2022-10-07T04:25:39.612Z,13.75
2022-10-07T04:28:12.919Z,13.35
2022-10-07T04:30:40.509Z,17.17
2022-10-07T04:33:08.436Z,27.58
2022-10-07T04:35:38.806Z,17.73
2022-10-07T04:38:08.125Z,25.33
2022-10-07T04:40:39.220Z,17.23
2022-10-07T04:43:22.995Z,19.70
2022-10-07T04:45:52.633Z,21.27
2022-10-07T04:48:21.445Z,13.55
2022-10-07T04:50:48.534Z,30.00
2022-10-07T04:53:16.657Z,28.77
2022-10-07T04:55:46.423Z,18.08
2022-10-07T04:58:14.506Z,22.38
2022-10-07T05:00:46.186Z,34.55
2022-10-07T05:03:14.455Z,14.18
2022-10-07T05:05:45.729Z,30.02
2022-10-07T05:08:17.332Z,26.83
2022-10-07T05:10:44.033Z,21.23
2022-10-07T05:13:13.780Z,12.90
2022-10-07T05:15:57.925Z,18.40
2022-10-07T05:18:27.057Z,22.02
2022-10-07T05:20:54.007Z,20.92
2022-10-07T05:23:27.295Z,13.23
2022-10-07T05:26:07.907Z,26.52
2022-10-07T05:28:35.451Z,12.82
2022-10-07T05:31:07.972Z,17.42
2022-10-07T05:33:34.804Z,27.75
2022-10-07T05:36:01.672Z,19.58
2022-10-07T05:38:28.951Z,15.88
2022-10-07T05:41:00.446Z,12.23
2022-10-07T05:43:28.197Z,25.50
2022-10-07T05:46:03.014Z,11.68
2022-10-07T05:48:34.215Z,19.13
2022-10-07T05:51:03.268Z,17.15
2022-10-07T05:53:30.280Z,15.57
2022-10-07T05:55:56.859Z,32.35
2022-10-07T05:58:24.174Z,18.85
2022-10-07T06:00:55.862Z,23.65
2022-10-07T06:03:22.855Z,18.08
2022-10-07T06:05:52.999Z,17.20
2022-10-07T06:11:05.896Z,14.50
2022-10-07T06:13:32.932Z,12.35
2022-10-07T06:16:07.970Z,15.38
2022-10-07T06:18:37.685Z,22.45
2022-10-07T06:21:05.540Z,18.67
2022-10-07T06:23:32.986Z,14.55
2022-10-07T06:26:05.505Z,16.05
2022-10-07T06:28:37.750Z,16.00
2022-10-07T06:31:06.530Z,13.30
2022-10-07T06:33:33.981Z,10.77
2022-10-07T06:36:05.135Z,11.63
2022-10-07T06:38:32.124Z,10.23
2022-10-07T06:41:03.774Z,11.15
2022-10-07T06:43:34.259Z,9.27
2022-10-07T06:46:03.077Z,9.00
2022-10-07T06:48:32.842Z,9.35
2022-10-07T06:51:03.171Z,9.48
2022-10-07T06:53:30.470Z,8.88
2022-10-07T06:56:01.760Z,9.80
2022-10-07T06:58:28.641Z,7.68
2022-10-07T07:00:56.552Z,9.27
2022-10-07T07:03:24.268Z,8.48
2022-10-07T07:05:54.653Z,8.57
2022-10-07T07:08:27.691Z,8.43
2022-10-07T07:10:54.845Z,8.68
2022-10-07T07:13:21.501Z,9.35
2022-10-07T07:15:58.929Z,9.25
2022-10-07T07:18:25.530Z,8.85
2022-10-07T07:20:52.194Z,9.48
2022-10-07T07:23:19.127Z,9.50
2022-10-07T07:25:46.288Z,10.23
2022-10-07T07:28:15.202Z,10.68
2022-10-07T07:30:42.509Z,9.57
2022-10-07T07:33:10.009Z,11.10
2022-10-07T07:35:41.407Z,9.32
2022-10-07T07:38:08.675Z,9.20
2022-10-07T07:40:39.249Z,9.88
2022-10-07T07:43:06.655Z,10.50
2022-10-07T07:45:36.680Z,13.02
2022-10-07T07:50:30.188Z,9.40
2022-10-07T07:52:57.577Z,11.50
2022-10-07T07:55:24.725Z,11.15
2022-10-07T07:57:51.200Z,12.63
2022-10-07T08:00:18.988Z,12.45
2022-10-07T08:02:45.551Z,13.70
2022-10-07T08:05:12.099Z,11.13
2022-10-07T08:07:38.608Z,12.13
2022-10-07T08:10:05.512Z,17.20
2022-10-07T08:12:32.701Z,11.27
2022-10-07T08:14:59.202Z,10.88
2022-10-07T08:17:25.781Z,10.25
2022-10-07T08:19:52.238Z,10.77
2022-10-07T08:22:18.762Z,11.98
2022-10-07T08:24:45.866Z,16.88
2022-10-07T08:27:13.124Z,12.48
2022-10-07T08:29:39.590Z,12.00
2022-10-07T08:32:06.158Z,14.88
2022-10-07T08:34:32.690Z,14.32
2022-10-07T08:36:59.233Z,11.40
2022-10-07T08:39:27.820Z,13.00
2022-10-07T08:42:08.583Z,11.55
2022-10-07T08:44:41.533Z,15.02
2022-10-07T08:47:34.742Z,10.45
2022-10-07T08:50:07.862Z,12.75
2022-10-07T08:52:46.656Z,11.80
2022-10-07T08:55:28.220Z,11.02
2022-10-07T08:58:19.756Z,15.57
2022-10-07T09:01:07.125Z,11.07
2022-10-07T09:03:47.358Z,12.45
2022-10-07T09:06:21.023Z,18.80
2022-10-07T09:08:57.178Z,15.07
2022-10-07T09:11:25.686Z,12.57
2022-10-07T09:14:53.411Z,9.70
2022-10-07T09:17:32.866Z,11.70
2022-10-07T09:20:16.395Z,12.35
2022-10-07T09:22:50.192Z,12.88
2022-10-07T09:25:22.895Z,14.50
2022-10-07T09:27:51.336Z,11.38
2022-10-07T09:30:20.014Z,12.73
2022-10-07T09:32:49.413Z,14.45
2022-10-07T09:35:22.191Z,13.45
2022-10-07T09:38:03.804Z,15.15
2022-10-07T09:40:33.804Z,14.45
2022-10-07T09:45:32.371Z,12.27
2022-10-07T09:48:07.152Z,17.17
2022-10-07T09:50:37.059Z,15.30
2022-10-07T09:53:05.988Z,11.90
2022-10-07T09:55:39.938Z,13.63
2022-10-07T09:58:20.553Z,14.27
2022-10-07T10:00:49.911Z,21.92
2022-10-07T10:03:17.978Z,15.50
2022-10-07T10:06:00.242Z,14.50
2022-10-07T10:08:33.983Z,15.00
2022-10-07T10:11:06.333Z,13.93
2022-10-07T10:13:40.781Z,16.02
2022-10-07T10:16:27.795Z,18.27
2022-10-07T10:19:05.720Z,16.60
2022-10-07T10:21:36.792Z,16.83
2022-10-07T10:24:06.314Z,16.58
2022-10-07T10:26:47.986Z,18.40
2022-10-07T10:29:40.348Z,17.85
2022-10-07T10:32:27.551Z,24.02
2022-10-07T10:35:00.289Z,126.97
2022-10-07T10:37:42.032Z,56.88
2022-10-07T10:40:21.939Z,18.15
2022-10-07T10:45:58.132Z,30.15
2022-10-07T10:48:44.990Z,23.40
2022-10-07T10:51:46.652Z,28.33
2022-10-07T10:54:31.601Z,25.88
2022-10-07T10:57:34.106Z,23.58
2022-10-07T11:00:11.482Z,37.92
2022-10-07T11:02:37.976Z,25.48
2022-10-07T11:05:28.358Z,24.15
2022-10-07T11:08:19.826Z,25.58
2022-10-07T11:11:00.108Z,53.53
2022-10-07T11:13:56.607Z,27.83
2022-10-07T11:16:40.170Z,30.08
2022-10-07T11:19:32.290Z,30.48
2022-10-07T11:22:00.389Z,22.98
2022-10-07T11:24:32.606Z,24.27
2022-10-07T11:27:16.489Z,24.20
2022-10-07T11:29:58.695Z,28.67
2022-10-07T11:32:34.262Z,28.00
2022-10-07T11:35:32.768Z,25.23
2022-10-07T11:38:14.231Z,24.67
2022-10-07T11:40:57.659Z,25.85
2022-10-07T11:43:34.053Z,29.40
2022-10-07T11:46:11.313Z,26.65
2022-10-07T11:48:49.155Z,24.58
2022-10-07T11:51:33.625Z,31.52
2022-10-07T11:54:03.108Z,27.55
2022-10-07T11:56:38.110Z,30.17
2022-10-07T11:59:07.177Z,28.13
2022-10-07T12:01:36.549Z,27.40
2022-10-07T12:04:21.154Z,25.77
2022-10-07T12:07:25.090Z,26.80
2022-10-07T12:10:18.117Z,25.80
2022-10-07T12:12:45.158Z,24.65
2022-10-07T12:15:33.691Z,27.13
2022-10-07T12:18:06.208Z,26.40
2022-10-07T12:20:50.999Z,27.95
2022-10-07T12:23:20.451Z,27.80
2022-10-07T12:25:48.210Z,29.50
2022-10-07T12:28:36.441Z,27.10
2022-10-07T12:31:06.230Z,27.23
2022-10-07T12:33:43.204Z,30.27
2022-10-07T12:36:18.523Z,29.08
2022-10-07T12:39:09.620Z,28.83
2022-10-07T12:41:39.811Z,26.75
2022-10-07T12:44:31.746Z,27.27
2022-10-07T12:47:00.968Z,28.30
2022-10-07T12:49:58.582Z,29.17
2022-10-07T12:52:45.320Z,30.08
2022-10-07T12:55:17.270Z,30.08
2022-10-07T12:57:49.776Z,27.40
2022-10-07T13:00:27.771Z,27.55
2022-10-07T13:03:26.014Z,30.30
2022-10-07T13:06:01.803Z,32.85
2022-10-07T13:09:05.485Z,30.63
2022-10-07T13:11:53.888Z,29.98
2022-10-07T13:14:29.919Z,29.20
2022-10-07T13:17:18.942Z,28.10
2022-10-07T13:20:01.821Z,26.60
2022-10-07T13:22:28.818Z,30.15
2022-10-07T13:24:57.027Z,24.08
2022-10-07T13:27:30.509Z,28.63
2022-10-07T13:29:59.574Z,30.83
2022-10-07T13:32:31.721Z,33.87
2022-10-07T13:34:59.365Z,30.88
2022-10-07T13:37:30.441Z,27.95
2022-10-07T13:40:17.708Z,26.95
2022-10-07T13:42:44.610Z,25.63
2022-10-07T13:45:15.827Z,25.27
2022-10-07T13:47:45.372Z,28.15
2022-10-07T13:50:22.539Z,28.25
2022-10-07T13:52:50.462Z,26.20
2022-10-07T13:55:21.020Z,26.85
2022-10-07T13:57:47.951Z,29.05
2022-10-07T14:00:15.297Z,30.15
2022-10-07T14:02:42.103Z,26.77
2022-10-07T14:05:46.952Z,28.52
2022-10-07T14:08:21.680Z,29.10
2022-10-07T14:11:00.822Z,27.00
2022-10-07T14:13:29.028Z,26.55
2022-10-07T14:15:57.282Z,27.65
2022-10-07T14:18:24.688Z,25.33
2022-10-07T14:20:52.436Z,23.13
2022-10-07T14:23:19.221Z,24.13
2022-10-07T14:25:48.767Z,23.58
2022-10-07T14:28:25.357Z,26.65
2022-10-07T14:31:25.577Z,24.63
2022-10-07T14:34:30.764Z,22.52
2022-10-07T14:37:12.433Z,24.60
2022-10-07T14:39:47.888Z,25.30
2022-10-07T14:42:19.874Z,25.15
2022-10-07T14:44:47.411Z,24.50
2022-10-07T14:47:15.457Z,26.25
2022-10-07T14:49:44.913Z,27.70
2022-10-07T14:52:28.158Z,29.13
2022-10-07T14:54:57.330Z,27.95
2022-10-07T14:57:25.251Z,24.90
2022-10-07T14:59:52.588Z,38.22
2022-10-07T15:02:20.303Z,31.90
2022-10-07T15:04:47.593Z,36.72
2022-10-07T15:07:15.933Z,33.47
2022-10-07T15:09:44.844Z,36.25
2022-10-07T15:12:13.785Z,42.20
2022-10-07T15:14:40.701Z,34.63
2022-10-07T15:17:07.454Z,40.08
2022-10-07T15:19:34.682Z,38.20
2022-10-07T15:22:01.226Z,35.42
2022-10-07T15:24:29.158Z,38.70
2022-10-07T15:26:55.867Z,34.40
2022-10-07T15:29:22.481Z,33.25
2022-10-07T15:31:51.082Z,37.70
2022-10-07T15:34:17.794Z,41.20
2022-10-07T15:36:45.078Z,37.08
2022-10-07T15:39:11.631Z,40.42
2022-10-07T15:41:40.180Z,38.72
2022-10-07T15:44:16.235Z,38.78
2022-10-07T15:46:44.146Z,37.88
2022-10-07T15:49:10.828Z,44.30
2022-10-07T15:51:37.529Z,41.28
2022-10-07T15:54:05.687Z,42.83
2022-10-07T15:56:32.913Z,48.47
2022-10-07T15:59:01.032Z,46.88
2022-10-07T16:01:31.562Z,44.00
2022-10-07T16:03:59.479Z,46.30
2022-10-07T16:06:31.228Z,48.40
2022-10-07T16:08:58.526Z,44.05
2022-10-07T16:11:27.425Z,49.65
2022-10-07T16:13:53.946Z,52.70
2022-10-07T16:16:26.430Z,52.53
2022-10-07T16:18:54.910Z,53.95
2022-10-07T16:21:33.011Z,57.88
2022-10-07T16:24:09.005Z,57.58
2022-10-07T16:26:37.309Z,58.95
2022-10-07T16:29:25.338Z,63.78
2022-10-07T16:31:58.292Z,64.03
2022-10-07T16:34:27.227Z,67.50
2022-10-07T16:36:54.291Z,62.63
2022-10-07T16:39:21.889Z,62.95
2022-10-07T16:41:51.804Z,64.45
2022-10-07T16:44:19.407Z,66.68
2022-10-07T16:46:46.321Z,66.85
2022-10-07T16:49:15.723Z,72.88
2022-10-07T16:51:43.717Z,69.82
2022-10-07T16:54:16.581Z,70.00
2022-10-07T16:56:49.145Z,63.33
2022-10-07T16:59:23.737Z,64.65
2022-10-07T17:01:52.985Z,69.60
2022-10-07T17:04:19.811Z,67.70
2022-10-07T17:06:47.676Z,73.95
2022-10-07T17:09:14.341Z,71.93
2022-10-07T17:11:41.837Z,66.57
2022-10-07T17:14:11.899Z,67.18
2022-10-07T17:19:06.999Z,57.70
2022-10-07T17:21:35.552Z,60.65
2022-10-07T17:24:03.151Z,66.53
2022-10-07T17:26:29.853Z,59.33
2022-10-07T17:29:02.349Z,53.80
2022-10-07T17:31:30.283Z,57.33
2022-10-07T17:33:57.893Z,53.63
2022-10-07T17:36:25.617Z,57.63
2022-10-07T17:38:52.345Z,53.20
2022-10-07T17:41:23.505Z,57.15
2022-10-07T17:43:52.806Z,58.75
2022-10-07T17:46:20.827Z,56.55
2022-10-07T17:48:50.310Z,55.95
2022-10-07T17:51:18.977Z,55.60
2022-10-07T17:53:46.218Z,62.33
2022-10-07T17:56:15.815Z,56.30
2022-10-07T17:58:45.271Z,58.53
2022-10-07T18:01:15.089Z,63.55
2022-10-07T18:03:42.499Z,51.33
2022-10-07T18:06:11.542Z,56.58
2022-10-07T18:08:41.508Z,63.50
2022-10-07T18:11:09.126Z,57.95
2022-10-07T18:13:54.744Z,56.42
2022-10-07T18:16:22.065Z,63.90
2022-10-07T18:18:56.921Z,61.85
2022-10-07T18:21:24.879Z,53.47
2022-10-07T18:23:52.655Z,53.92
2022-10-07T18:26:19.424Z,54.67
2022-10-07T18:28:46.827Z,57.70
2022-10-07T18:31:15.052Z,54.53
2022-10-07T18:33:42.170Z,53.17
2022-10-07T18:36:11.702Z,56.08
2022-10-07T18:38:40.864Z,55.30
2022-10-07T18:41:13.689Z,52.37
2022-10-07T18:43:41.110Z,50.00
2022-10-07T18:46:19.072Z,50.15
2022-10-07T18:48:48.090Z,51.20
2022-10-07T18:51:15.198Z,52.05
2022-10-07T18:53:43.795Z,50.28
2022-10-07T18:56:16.174Z,53.95
2022-10-07T18:58:47.312Z,45.88
2022-10-07T19:01:17.013Z,45.50
2022-10-07T19:03:44.201Z,48.72
2022-10-07T19:06:19.638Z,45.72
2022-10-07T19:08:46.278Z,48.50
2022-10-07T19:11:16.044Z,47.35
2022-10-07T19:13:58.884Z,49.25
2022-10-07T19:16:35.058Z,48.90
2022-10-07T19:19:23.891Z,47.97
2022-10-07T19:21:53.212Z,51.03
2022-10-07T19:24:21.181Z,52.38
2022-10-07T19:26:49.855Z,52.20
2022-10-07T19:29:17.908Z,54.97
2022-10-07T19:31:48.430Z,54.45
2022-10-07T19:34:18.554Z,56.13
2022-10-07T19:39:17.328Z,53.65
2022-10-07T19:41:44.638Z,54.40
2022-10-07T19:44:12.124Z,52.47
2022-10-07T19:46:39.121Z,54.17
2022-10-07T19:49:07.154Z,49.42
2022-10-07T19:51:34.141Z,56.33
2022-10-07T19:54:03.134Z,53.63
2022-10-07T19:56:32.368Z,49.67
2022-10-07T19:59:02.355Z,47.55
2022-10-07T20:01:34.396Z,45.92
2022-10-07T20:04:05.226Z,49.47
2022-10-07T20:06:32.567Z,44.17
2022-10-07T20:08:59.153Z,44.08
2022-10-07T20:11:27.774Z,48.15
2022-10-07T20:13:54.503Z,44.10
2022-10-07T20:16:24.244Z,47.88
2022-10-07T20:18:56.542Z,41.92
2022-10-07T20:21:23.947Z,47.83
2022-10-07T20:23:52.389Z,50.20
2022-10-07T20:26:22.146Z,53.63
2022-10-07T20:28:51.754Z,54.42
2022-10-07T20:31:21.655Z,55.15
2022-10-07T20:33:50.645Z,53.90
2022-10-07T20:36:19.688Z,49.75
2022-10-07T20:39:05.468Z,52.63
2022-10-07T20:41:50.831Z,49.10
2022-10-07T20:44:18.473Z,44.65
2022-10-07T20:46:44.939Z,48.15
2022-10-07T20:49:25.464Z,46.40
2022-10-07T20:51:57.534Z,45.95
2022-10-07T20:54:25.736Z,39.85
2022-10-07T20:56:53.370Z,42.22
2022-10-07T20:59:20.688Z,40.75
2022-10-07T21:01:47.258Z,43.72
2022-10-07T21:04:15.562Z,47.53
2022-10-07T21:06:43.041Z,44.63
2022-10-07T21:09:10.631Z,45.40
2022-10-07T21:11:37.969Z,40.83
2022-10-07T21:14:04.662Z,48.47
2022-10-07T21:16:32.523Z,44.20
2022-10-07T21:18:59.175Z,45.47
2022-10-07T21:21:25.796Z,45.90
2022-10-07T21:23:52.956Z,44.60
2022-10-07T21:26:20.128Z,43.58
2022-10-07T21:28:48.433Z,44.38
2022-10-07T21:31:17.918Z,47.55
2022-10-07T21:33:46.915Z,41.90
2022-10-07T21:36:16.594Z,42.10
2022-10-07T21:38:45.012Z,49.45
2022-10-07T21:41:18.269Z,44.80
2022-10-07T21:43:49.509Z,49.45
2022-10-07T21:46:16.593Z,47.30
2022-10-07T21:48:44.107Z,47.97
2022-10-07T21:51:10.625Z,48.58
2022-10-07T21:53:37.170Z,49.22
2022-10-07T21:56:09.958Z,45.70
2022-10-07T21:58:36.784Z,42.97
2022-10-07T22:01:08.835Z,51.90
2022-10-07T22:03:35.440Z,49.50
2022-10-07T22:06:06.754Z,46.05
2022-10-07T22:08:36.356Z,50.33
2022-10-07T22:11:04.114Z,41.75
2022-10-07T22:13:33.231Z,44.90
2022-10-07T22:16:02.235Z,47.67
2022-10-07T22:18:36.269Z,44.25
2022-10-07T22:21:09.353Z,41.85
2022-10-07T22:23:35.839Z,38.72
2022-10-07T22:26:04.242Z,42.25
2022-10-07T22:28:31.492Z,42.40
2022-10-07T22:30:59.190Z,41.35
2022-10-07T22:33:26.096Z,49.38
2022-10-07T22:35:52.594Z,47.08
2022-10-07T22:38:19.573Z,55.30
2022-10-07T22:40:46.355Z,59.65
2022-10-07T22:43:12.821Z,53.78
2022-10-07T22:45:39.314Z,56.45
2022-10-07T22:48:05.792Z,56.60
2022-10-07T22:50:33.005Z,53.92
2022-10-07T22:53:00.364Z,53.25
2022-10-07T22:55:27.098Z,47.40
2022-10-07T22:57:53.912Z,40.58
2022-10-07T23:00:22.184Z,38.63
2022-10-07T23:02:48.982Z,35.63
2022-10-07T23:05:15.909Z,36.97
2022-10-07T23:07:42.419Z,40.08
2022-10-07T23:10:09.507Z,41.58
2022-10-07T23:12:36.005Z,42.63
2022-10-07T23:15:04.029Z,42.42
2022-10-07T23:17:31.179Z,46.90
2022-10-07T23:19:57.693Z,50.95
2022-10-07T23:22:24.214Z,53.35
2022-10-07T23:24:52.387Z,46.70
2022-10-07T23:27:20.011Z,43.22
2022-10-07T23:29:46.464Z,38.60
2022-10-07T23:32:12.952Z,34.95
2022-10-07T23:34:40.054Z,39.60
2022-10-07T23:37:06.527Z,33.38
2022-10-07T23:39:33.896Z,32.78
2022-10-07T23:42:00.480Z,38.00
2022-10-07T23:44:27.138Z,37.88
2022-10-07T23:46:54.182Z,34.92
2022-10-07T23:49:20.699Z,38.40
2022-10-07T23:51:47.422Z,40.25
2022-10-07T23:54:14.030Z,45.03
2022-10-07T23:56:40.518Z,42.42
2022-10-07T23:59:07.128Z,38.88
